Time;durP1;ratioP1;P1;durP2;ratioP2;P2;SDS_P1;SDS_P2;PMS_P1;PMS_P2;Temp;Humidity;BMP_temperature;BMP_pressure;BME280_temperature;BME280_humidity;BME280_pressure;Samples;Min_cycle;Max_cycle;Signal;HPM_P1;HPM_P2
2022/01/07 05:01:59;;;;;;;17.30;14.90;;;0.00;99.90;;;;;;5255916;23;20491;-70
2022/01/07 05:04:26;;;;;;;16.67;13.80;;;0.10;99.90;;;;;;4978431;28;20451;-70
2022/01/07 05:06:52;;;;;;;17.73;13.70;;;0.10;99.90;;;;;;4978065;28;20454;-71
2022/01/07 05:09:20;;;;;;;19.77;14.40;;;0.10;99.90;;;;;;4978127;28;20546;-71
2022/01/07 05:11:48;;;;;;;15.07;12.73;;;0.20;99.90;;;;;;4978677;28;20475;-69
2022/01/07 05:14:15;;;;;;;17.50;12.73;;;0.20;99.90;;;;;;4978499;28;20459;-69
2022/01/07 05:16:42;;;;;;;17.13;11.80;;;0.20;99.90;;;;;;4978409;28;20826;-71
2022/01/07 05:19:11;;;;;;;18.00;11.53;;;0.30;99.90;;;;;;4978195;28;20483;-70
2022/01/07 05:21:38;;;;;;;12.37;10.23;;;0.20;99.90;;;;;;4978407;28;20478;-70
2022/01/07 05:24:06;;;;;;;13.17;10.83;;;0.20;99.90;;;;;;4978121;28;20459;-70
2022/01/07 05:26:33;;;;;;;14.30;10.97;;;0.20;99.90;;;;;;4978254;28;20458;-70
2022/01/07 05:28:59;;;;;;;11.53;10.33;;;0.20;99.90;;;;;;4977833;28;20459;-70
2022/01/07 05:31:26;;;;;;;13.20;10.17;;;0.20;99.90;;;;;;4977743;28;20483;-70
2022/01/07 05:33:55;;;;;;;12.03;10.73;;;0.20;99.90;;;;;;4977814;28;20459;-70
2022/01/07 05:36:23;;;;;;;12.23;10.30;;;0.20;99.90;;;;;;4977781;28;20455;-70
2022/01/07 05:38:50;;;;;;;13.07;10.03;;;0.20;99.90;;;;;;4977387;28;21012;-70
2022/01/07 05:41:18;;;;;;;10.13;9.07;;;0.20;99.90;;;;;;4981343;28;20502;-71
2022/01/07 05:43:44;;;;;;;11.13;8.73;;;0.20;99.90;;;;;;4979064;28;20459;-70
2022/01/07 05:46:14;;;;;;;11.97;10.50;;;0.20;99.90;;;;;;4977812;28;20463;-70
2022/01/07 05:48:41;;;;;;;11.03;9.27;;;0.20;99.90;;;;;;4977632;28;20459;-70
2022/01/07 05:51:08;;;;;;;12.40;10.10;;;0.10;99.90;;;;;;4977024;28;20475;-70
2022/01/07 05:53:36;;;;;;;14.57;8.97;;;0.00;99.90;;;;;;4977354;28;20465;-70
2022/01/07 05:56:03;;;;;;;11.43;10.33;;;0.00;99.90;;;;;;4977554;28;20459;-70
2022/01/07 05:58:30;;;;;;;13.00;10.43;;;-0.10;99.90;;;;;;4977543;28;20483;-70
2022/01/07 06:00:57;;;;;;;14.13;10.30;;;-0.10;99.90;;;;;;4977198;28;20505;-70
2022/01/07 06:03:24;;;;;;;12.50;10.47;;;-0.10;99.90;;;;;;4977672;28;20482;-71
2022/01/07 06:05:51;;;;;;;13.23;10.70;;;-0.20;99.90;;;;;;4977488;28;20459;-70
2022/01/07 06:08:18;;;;;;;15.27;11.43;;;-0.30;99.90;;;;;;4977534;28;20447;-70
2022/01/07 06:10:46;;;;;;;12.20;10.90;;;-0.30;99.90;;;;;;4977286;28;20486;-69
2022/01/07 06:13:13;;;;;;;14.13;10.90;;;-0.30;99.90;;;;;;4978173;28;20459;-69
2022/01/07 06:15:40;;;;;;;14.63;10.83;;;-0.30;99.90;;;;;;4977118;28;20459;-69
2022/01/07 06:18:07;;;;;;;13.90;11.63;;;-0.30;99.90;;;;;;4976893;28;20451;-71
2022/01/07 06:20:34;;;;;;;13.57;11.20;;;-0.30;99.90;;;;;;4989037;28;20537;-69
2022/01/07 06:23:00;;;;;;;14.80;11.90;;;-0.30;99.90;;;;;;4990271;28;20929;-70
2022/01/07 06:25:27;;;;;;;13.20;11.80;;;-0.30;99.90;;;;;;4977857;28;20451;-70
2022/01/07 06:27:55;;;;;;;14.43;10.90;;;-0.20;99.90;;;;;;4977537;28;20454;-69
2022/01/07 06:30:22;;;;;;;14.37;11.80;;;-0.20;99.90;;;;;;4976865;28;20840;-69
2022/01/07 06:32:49;;;;;;;12.60;11.10;;;-0.20;99.90;;;;;;4976798;28;20458;-70
2022/01/07 06:35:16;;;;;;;13.27;11.10;;;-0.10;99.90;;;;;;4975988;28;20981;-70
2022/01/07 06:37:43;;;;;;;11.63;10.43;;;-0.10;99.90;;;;;;4976265;28;20455;-70
2022/01/07 06:40:11;;;;;;;15.80;12.23;;;0.00;99.90;;;;;;4976072;28;20483;-70
2022/01/07 06:42:37;;;;;;;15.53;11.70;;;0.00;99.90;;;;;;4975748;28;20934;-70
2022/01/07 06:45:07;;;;;;;15.00;11.40;;;0.10;99.90;;;;;;4976269;28;20901;-70
2022/01/07 06:47:34;;;;;;;14.40;12.23;;;0.10;99.90;;;;;;4975719;28;20455;-70
2022/01/07 06:50:01;;;;;;;13.13;11.00;;;0.10;99.90;;;;;;4975873;28;20464;-70
2022/01/07 06:52:28;;;;;;;16.80;12.47;;;0.10;99.90;;;;;;4976122;28;20482;-70
2022/01/07 06:54:55;;;;;;;14.60;11.93;;;0.20;99.90;;;;;;4975753;28;20463;-70
2022/01/07 06:57:22;;;;;;;15.70;11.20;;;0.10;99.90;;;;;;4976131;28;20830;-70
2022/01/07 06:59:48;;;;;;;15.20;11.13;;;0.20;99.90;;;;;;4976227;28;20490;-70
2022/01/07 07:02:17;;;;;;;18.30;12.20;;;0.20;99.90;;;;;;4975575;28;20897;-70
2022/01/07 07:04:44;;;;;;;14.17;11.83;;;0.20;99.90;;;;;;4976310;28;20462;-70
2022/01/07 07:07:11;;;;;;;14.97;12.10;;;0.20;99.90;;;;;;4976230;28;20459;-70
2022/01/07 07:09:38;;;;;;;16.30;11.93;;;0.20;99.90;;;;;;4978173;28;20463;-70
2022/01/07 07:12:05;;;;;;;16.23;13.37;;;0.30;99.90;;;;;;4980718;28;20483;-70
2022/01/07 07:14:32;;;;;;;16.93;12.77;;;0.30;99.90;;;;;;4981439;28;20455;-70
2022/01/07 07:16:59;;;;;;;14.53;12.50;;;0.20;99.90;;;;;;4982870;28;20459;-70
2022/01/07 07:19:27;;;;;;;16.07;12.23;;;0.20;99.90;;;;;;4979329;28;20483;-70
2022/01/07 07:21:54;;;;;;;16.23;13.10;;;0.20;99.90;;;;;;4975923;28;20486;-70
2022/01/07 07:24:21;;;;;;;13.13;10.80;;;0.30;99.90;;;;;;4976096;28;20482;-70
2022/01/07 07:26:47;;;;;;;15.90;11.90;;;0.30;99.90;;;;;;4975646;28;20470;-70
2022/01/07 07:29:14;;;;;;;15.33;12.10;;;0.20;99.90;;;;;;4975693;28;20451;-70
2022/01/07 07:31:46;;;;;;;14.30;12.03;;;0.40;99.90;;;;;;4975410;28;20478;-70
2022/01/07 07:34:32;;;;;;;18.90;12.43;;;0.40;99.90;;;;;;4975541;28;20475;-70
2022/01/07 07:37:00;;;;;;;13.83;11.77;;;0.40;99.90;;;;;;4975190;28;20994;-70
2022/01/07 07:39:28;;;;;;;17.43;12.13;;;0.50;99.90;;;;;;4975955;28;20487;-69
2022/01/07 07:41:54;;;;;;;14.47;11.57;;;0.50;99.90;;;;;;4975654;28;20482;-69
2022/01/07 07:44:21;;;;;;;12.70;11.27;;;0.50;99.90;;;;;;4975623;28;20455;-70
2022/01/07 07:46:48;;;;;;;14.43;11.23;;;0.60;99.90;;;;;;4975505;28;20458;-70
2022/01/07 07:49:15;;;;;;;14.30;10.97;;;0.70;99.90;;;;;;4975067;28;20451;-69
2022/01/07 07:51:42;;;;;;;15.77;12.13;;;0.70;99.90;;;;;;4975404;28;20479;-70
2022/01/07 07:54:11;;;;;;;15.00;11.03;;;0.80;99.90;;;;;;4976043;28;20462;-69
2022/01/07 07:56:38;;;;;;;11.97;10.50;;;0.90;99.90;;;;;;4975444;28;20463;-69
2022/01/07 07:59:04;;;;;;;12.90;10.30;;;1.10;99.90;;;;;;4975498;28;20502;-69
2022/01/07 08:01:31;;;;;;;11.63;9.43;;;1.60;99.90;;;;;;4975159;28;21015;-70
2022/01/07 08:03:58;;;;;;;10.57;8.90;;;2.50;99.90;;;;;;4975857;28;20459;-70
2022/01/07 08:06:25;;;;;;;10.70;9.10;;;2.90;99.90;;;;;;4976654;28;20462;-70
2022/01/07 08:08:52;;;;;;;12.60;8.80;;;3.40;99.90;;;;;;4975662;28;20436;-70
2022/01/07 08:11:22;;;;;;;9.60;8.70;;;3.80;99.90;;;;;;4975914;28;20486;-70
2022/01/07 08:16:34;;;;;;;12.13;10.23;;;4.40;99.90;;;;;;4979373;28;20418;-70
2022/01/07 08:19:01;;;;;;;10.17;9.00;;;4.10;99.90;;;;;;4979293;28;20483;-70
2022/01/07 08:21:30;;;;;;;11.80;8.70;;;3.60;99.90;;;;;;4979002;28;20475;-70
2022/01/07 08:23:59;;;;;;;14.00;9.70;;;3.30;99.90;;;;;;4978658;28;20455;-70
2022/01/07 08:26:27;;;;;;;11.03;8.83;;;2.90;99.90;;;;;;4978125;28;20830;-70
2022/01/07 08:28:58;;;;;;;11.57;9.37;;;2.70;99.90;;;;;;4978343;28;20484;-70
2022/01/07 08:34:53;;;;;;;10.73;9.60;;;2.40;99.90;;;;;;4979081;28;20474;-70
2022/01/07 08:36:57;;;;;;;13.20;9.47;;;2.10;99.90;;;;;;4978441;28;20521;-70
2022/01/07 08:39:24;;;;;;;12.00;10.13;;;2.00;99.90;;;;;;4978289;28;20482;-73
2022/01/07 08:41:53;;;;;;;10.57;9.30;;;2.00;99.90;;;;;;4978531;28;20860;-73
2022/01/07 08:44:22;;;;;;;11.37;9.10;;;1.90;99.90;;;;;;4980802;28;20455;-73
2022/01/07 08:46:49;;;;;;;12.10;9.73;;;1.90;99.90;;;;;;4987428;28;20496;-73
2022/01/07 08:49:16;;;;;;;11.17;8.80;;;1.80;99.90;;;;;;4978927;28;20455;-73
2022/01/07 08:51:42;;;;;;;12.67;10.60;;;1.80;99.90;;;;;;4979083;28;20479;-73
2022/01/07 08:54:10;;;;;;;10.93;9.30;;;1.70;99.90;;;;;;4978907;28;20485;-72
2022/01/07 08:56:37;;;;;;;11.30;10.20;;;1.70;99.90;;;;;;4978597;28;20455;-72
2022/01/07 08:59:05;;;;;;;9.27;8.27;;;1.70;99.90;;;;;;4978140;28;20574;-73
2022/01/07 09:01:32;;;;;;;11.37;9.33;;;1.70;99.90;;;;;;4978495;28;20496;-73
2022/01/07 09:03:59;;;;;;;12.53;8.67;;;1.70;99.90;;;;;;4979046;28;20529;-73
2022/01/07 09:06:25;;;;;;;13.93;9.33;;;1.70;99.90;;;;;;4978328;28;20462;-72
2022/01/07 09:08:53;;;;;;;10.63;8.97;;;1.70;99.90;;;;;;4978093;28;20878;-72
2022/01/07 09:11:20;;;;;;;9.70;8.40;;;1.70;99.90;;;;;;4977865;28;20475;-74
2022/01/07 09:13:48;;;;;;;10.40;9.10;;;1.70;99.90;;;;;;4977641;28;20967;-70
2022/01/07 09:16:16;;;;;;;10.20;8.50;;;1.80;99.90;;;;;;4977493;28;20558;-69
2022/01/07 09:18:43;;;;;;;10.90;9.00;;;1.80;99.90;;;;;;4977639;28;20455;-68
2022/01/07 09:21:10;;;;;;;10.43;8.13;;;1.90;99.90;;;;;;4977182;28;20848;-69
2022/01/07 09:23:40;;;;;;;11.30;8.80;;;1.90;99.90;;;;;;4977049;28;20791;-69
2022/01/07 09:26:07;;;;;;;11.20;8.63;;;1.90;99.90;;;;;;4976466;28;20439;-70
2022/01/07 09:28:34;;;;;;;9.13;8.17;;;1.90;99.90;;;;;;4977123;28;20458;-70
2022/01/07 09:31:00;;;;;;;13.00;9.00;;;1.90;99.90;;;;;;4977380;28;20567;-71
2022/01/07 09:33:29;;;;;;;13.23;10.50;;;2.00;99.90;;;;;;4976944;28;20950;-74
2022/01/07 09:35:55;;;;;;;10.67;8.63;;;2.10;99.90;;;;;;4977086;28;20451;-70
2022/01/07 09:38:22;;;;;;;12.23;9.20;;;2.10;99.90;;;;;;4978039;28;20558;-75
2022/01/07 09:40:50;;;;;;;12.37;8.73;;;2.10;99.90;;;;;;4977264;28;20490;-73
2022/01/07 09:43:17;;;;;;;12.53;9.00;;;2.10;99.90;;;;;;4977427;28;20466;-74
2022/01/07 09:45:44;;;;;;;16.00;10.43;;;2.10;99.90;;;;;;4978442;28;20455;-72
2022/01/07 09:48:11;;;;;;;11.70;9.30;;;2.10;99.90;;;;;;4978866;28;20461;-72
2022/01/07 09:50:39;;;;;;;13.10;10.37;;;2.10;99.90;;;;;;4977880;28;20482;-73
2022/01/07 09:53:07;;;;;;;12.43;9.93;;;2.10;99.90;;;;;;4978450;28;20458;-75
2022/01/07 09:55:34;;;;;;;10.97;9.13;;;2.10;99.90;;;;;;4977567;28;20461;-74
2022/01/07 09:58:00;;;;;;;8.87;7.93;;;2.10;99.90;;;;;;4982332;28;20470;-74
2022/01/07 10:00:33;;;;;;;10.03;8.80;;;2.20;99.90;;;;;;4977435;28;20502;-74
2022/01/07 10:03:02;;;;;;;9.83;8.83;;;2.20;99.90;;;;;;4978272;28;20800;-74
2022/01/07 10:05:30;;;;;;;12.50;10.13;;;2.10;99.90;;;;;;4977014;28;20467;-74
2022/01/07 10:08:17;;;;;;;12.30;11.00;;;2.10;99.90;;;;;;4977181;28;20459;-73
2022/01/07 10:10:45;;;;;;;13.03;8.80;;;2.10;99.90;;;;;;4977126;28;20479;-73
2022/01/07 10:13:12;;;;;;;10.60;9.23;;;2.20;99.90;;;;;;4977810;28;20966;-73
2022/01/07 10:15:40;;;;;;;13.27;8.60;;;2.30;99.90;;;;;;4978284;28;20461;-73
2022/01/07 10:18:08;;;;;;;11.10;9.60;;;2.30;99.90;;;;;;4985148;28;20465;-73
2022/01/07 10:20:37;;;;;;;10.23;8.50;;;2.30;99.90;;;;;;4976910;28;20494;-74
2022/01/07 10:23:07;;;;;;;9.30;8.40;;;2.30;99.90;;;;;;4976838;28;20502;-74
2022/01/07 10:25:36;;;;;;;11.17;9.20;;;2.40;99.90;;;;;;4976923;28;20813;-73
2022/01/07 10:28:06;;;;;;;12.73;9.20;;;2.40;99.90;;;;;;4980477;28;20840;-75
2022/01/07 10:30:38;;;;;;;10.57;9.20;;;2.30;99.90;;;;;;4979259;28;20542;-74
2022/01/07 10:33:17;;;;;;;12.70;10.07;;;2.30;99.90;;;;;;4976782;28;20443;-73
2022/01/07 10:35:44;;;;;;;14.20;11.00;;;2.30;99.90;;;;;;4976208;28;20648;-72
2022/01/07 10:38:17;;;;;;;11.50;10.30;;;2.20;99.90;;;;;;4976352;28;20823;-75
2022/01/07 10:40:44;;;;;;;12.53;10.60;;;2.10;99.90;;;;;;4976464;28;20521;-74
2022/01/07 10:43:17;;;;;;;12.27;10.87;;;2.00;99.90;;;;;;4976713;28;20481;-73
2022/01/07 10:45:46;;;;;;;17.03;12.30;;;1.90;99.90;;;;;;4976721;28;20444;-73
2022/01/07 10:48:14;;;;;;;13.67;11.10;;;1.90;99.90;;;;;;4976260;28;20474;-73
2022/01/07 10:50:43;;;;;;;15.50;12.10;;;1.90;99.90;;;;;;4975845;28;20498;-70
2022/01/07 10:53:25;;;;;;;12.80;10.50;;;1.80;99.90;;;;;;4975198;28;20463;-70
2022/01/07 10:56:04;;;;;;;18.97;12.60;;;1.80;99.90;;;;;;4975732;28;20444;-71
2022/01/07 10:58:56;;;;;;;15.13;12.73;;;1.70;99.90;;;;;;4975623;28;20443;-71
2022/01/07 11:01:32;;;;;;;14.80;11.83;;;1.50;99.90;;;;;;4976052;28;20513;-71
2022/01/07 11:04:01;;;;;;;17.70;12.67;;;1.50;99.90;;;;;;4976252;28;20794;-71
2022/01/07 11:06:29;;;;;;;18.60;12.70;;;1.50;99.90;;;;;;4975842;28;20466;-71
2022/01/07 11:08:59;;;;;;;13.70;12.30;;;1.50;99.90;;;;;;4975639;28;20950;-71
2022/01/07 11:11:28;;;;;;;17.43;13.00;;;1.50;99.90;;;;;;4976282;28;20471;-71
2022/01/07 11:14:01;;;;;;;16.43;13.33;;;1.50;99.90;;;;;;4976790;28;20463;-71
2022/01/07 11:16:27;;;;;;;16.83;13.77;;;1.50;99.90;;;;;;4975742;28;20799;-71
2022/01/07 11:18:55;;;;;;;20.57;14.10;;;1.60;99.90;;;;;;4975706;28;20463;-71
2022/01/07 11:21:22;;;;;;;18.60;14.70;;;1.50;99.90;;;;;;4975625;28;20491;-70
2022/01/07 11:23:48;;;;;;;22.10;15.03;;;1.50;99.90;;;;;;4975769;28;20458;-71
2022/01/07 11:26:17;;;;;;;18.40;14.97;;;1.50;99.90;;;;;;4975676;28;20463;-70
2022/01/07 11:29:05;;;;;;;22.60;14.20;;;1.50;99.90;;;;;;4975559;28;20466;-71
2022/01/07 11:31:32;;;;;;;21.47;15.13;;;1.50;99.90;;;;;;4975515;28;20467;-71
2022/01/07 11:34:26;;;;;;;25.20;16.87;;;1.40;99.90;;;;;;4975519;28;20462;-70
2022/01/07 11:36:54;;;;;;;20.07;15.37;;;1.50;99.90;;;;;;4973192;28;20550;-71
2022/01/07 11:39:22;;;;;;;18.00;14.33;;;1.50;99.90;;;;;;4974979;28;20470;-70
2022/01/07 11:41:53;;;;;;;20.63;14.37;;;1.60;99.90;;;;;;4975499;28;20487;-70
2022/01/07 11:44:26;;;;;;;19.90;15.87;;;1.60;99.90;;;;;;4975576;28;20443;-71
2022/01/07 11:47:14;;;;;;;17.50;13.57;;;1.70;99.90;;;;;;4975646;28;20455;-71
2022/01/07 11:49:41;;;;;;;20.13;16.10;;;2.00;99.90;;;;;;4980892;28;20463;-71
2022/01/07 11:52:31;;;;;;;18.97;14.33;;;2.10;99.90;;;;;;4980044;28;20888;-69
2022/01/07 11:55:32;;;;;;;18.67;14.20;;;2.40;99.90;;;;;;4978797;28;20455;-70
2022/01/07 11:58:02;;;;;;;21.13;13.60;;;2.60;99.90;;;;;;4919751;29;20444;-70
2022/01/07 12:00:56;;;;;;;14.60;10.77;;;2.60;99.90;;;;;;4918866;29;20477;-69
2022/01/07 12:03:37;;;;;;;16.70;12.67;;;2.80;99.90;;;;;;4958489;28;20816;-69
2022/01/07 12:06:37;;;;;;;15.00;11.80;;;2.90;99.90;;;;;;4979363;28;20450;-69
2022/01/07 12:09:19;;;;;;;11.90;10.70;;;2.80;99.90;;;;;;4979709;28;20458;-69
2022/01/07 12:11:53;;;;;;;13.17;10.23;;;2.90;99.90;;;;;;4979116;28;20521;-69
2022/01/07 12:14:23;;;;;;;12.30;9.90;;;3.10;99.90;;;;;;4979104;28;20439;-69
2022/01/07 12:16:51;;;;;;;13.20;11.10;;;3.00;99.90;;;;;;4978457;28;20958;-69
2022/01/07 12:20:06;;;;;;;13.20;11.30;;;3.00;99.90;;;;;;4979090;28;20459;-69
2022/01/07 12:22:33;;;;;;;11.37;10.03;;;3.00;99.90;;;;;;4979538;28;20804;-69
2022/01/07 12:25:03;;;;;;;15.67;11.27;;;2.90;99.90;;;;;;4978930;28;20463;-69
2022/01/07 12:27:30;;;;;;;13.40;11.00;;;2.90;99.90;;;;;;4978790;28;20443;-69
2022/01/07 12:30:00;;;;;;;12.20;10.90;;;2.90;99.90;;;;;;4978917;28;20455;-69
2022/01/07 12:32:35;;;;;;;12.50;10.60;;;2.70;99.90;;;;;;4978763;28;20475;-68
2022/01/07 12:35:04;;;;;;;13.73;10.53;;;2.80;99.90;;;;;;4978934;28;20544;-67
2022/01/07 12:37:31;;;;;;;19.07;10.20;;;2.90;99.90;;;;;;4978843;28;20462;-69
2022/01/07 12:40:00;;;;;;;11.53;9.40;;;3.10;99.90;;;;;;4978959;28;20454;-68
2022/01/07 12:42:29;;;;;;;13.93;10.50;;;3.20;99.90;;;;;;4978717;28;20795;-69
2022/01/07 12:44:59;;;;;;;11.10;9.60;;;3.40;99.90;;;;;;4978690;28;20457;-68
2022/01/07 12:47:28;;;;;;;11.27;9.50;;;3.50;99.90;;;;;;4978431;28;20455;-67
2022/01/07 12:49:56;;;;;;;9.77;8.57;;;3.80;99.90;;;;;;4978382;28;20486;-68
2022/01/07 12:52:25;;;;;;;9.10;8.10;;;3.80;99.90;;;;;;4978515;28;20474;-66
2022/01/07 12:54:54;;;;;;;11.13;8.80;;;4.10;99.90;;;;;;4978404;28;20467;-66
2022/01/07 12:57:26;;;;;;;9.87;8.40;;;4.40;99.90;;;;;;4978548;28;20469;-67
2022/01/07 13:00:08;;;;;;;11.93;8.03;;;4.60;99.90;;;;;;4977935;28;20447;-68
2022/01/07 13:02:35;;;;;;;10.27;8.20;;;4.80;99.90;;;;;;4978182;28;20474;-70
2022/01/07 13:05:29;;;;;;;10.03;8.03;;;5.00;99.90;;;;;;4978656;28;20473;-72
2022/01/07 13:07:59;;;;;;;9.00;7.57;;;4.90;99.90;;;;;;4978587;28;20444;-69
2022/01/07 13:10:28;;;;;;;10.07;8.73;;;4.70;99.90;;;;;;4978105;28;20800;-71
2022/01/07 13:13:01;;;;;;;9.10;8.17;;;4.60;99.90;;;;;;4977786;28;20977;-71
2022/01/07 13:15:54;;;;;;;8.20;7.43;;;4.40;99.90;;;;;;4978183;28;20451;-70
2022/01/07 13:18:23;;;;;;;8.97;7.20;;;4.10;99.90;;;;;;4964958;28;20801;-70
2022/01/07 13:20:52;;;;;;;8.00;7.30;;;4.20;99.90;;;;;;4980496;28;20493;-70
2022/01/07 13:23:19;;;;;;;6.93;6.23;;;4.10;99.90;;;;;;4978221;28;20466;-70
2022/01/07 13:25:47;;;;;;;7.40;6.57;;;4.00;99.90;;;;;;4977555;28;20554;-70
2022/01/07 13:28:14;;;;;;;9.33;6.63;;;4.00;99.90;;;;;;4978247;28;20462;-70
2022/01/07 13:30:46;;;;;;;8.40;6.63;;;4.00;99.90;;;;;;4978250;28;20471;-70
2022/01/07 13:33:16;;;;;;;6.47;5.87;;;4.10;99.90;;;;;;4977949;28;20780;-70
2022/01/07 13:35:43;;;;;;;7.80;6.17;;;4.00;99.90;;;;;;4977639;28;20434;-70
2022/01/07 13:38:15;;;;;;;6.43;5.83;;;4.00;99.90;;;;;;4977244;28;20969;-70
2022/01/07 13:40:43;;;;;;;6.83;6.00;;;3.90;99.90;;;;;;4977313;28;20850;-70
2022/01/07 13:43:11;;;;;;;7.77;5.50;;;3.90;99.90;;;;;;4977364;28;20459;-70
2022/01/07 13:45:38;;;;;;;5.83;5.23;;;4.00;99.90;;;;;;4976955;28;20459;-70
2022/01/07 13:48:07;;;;;;;6.10;5.33;;;3.90;99.90;;;;;;4977934;28;20451;-70
2022/01/07 13:50:39;;;;;;;5.17;4.77;;;4.00;99.90;;;;;;4977161;28;20947;-71
2022/01/07 13:53:14;;;;;;;7.10;6.03;;;4.00;99.90;;;;;;4977649;28;20445;-70
2022/01/07 13:55:41;;;;;;;6.03;4.80;;;3.90;99.90;;;;;;4977483;28;20455;-71
2022/01/07 13:58:09;;;;;;;6.37;4.43;;;3.80;99.90;;;;;;4977386;28;20459;-70
2022/01/07 14:00:37;;;;;;;5.70;4.70;;;3.80;99.90;;;;;;4977209;28;20498;-70
2022/01/07 14:03:04;;;;;;;4.47;4.07;;;3.80;99.90;;;;;;4976825;28;20455;-70
2022/01/07 14:05:32;;;;;;;6.30;4.77;;;3.80;99.90;;;;;;4976928;28;20969;-69
2022/01/07 14:08:00;;;;;;;4.53;3.47;;;3.80;99.90;;;;;;4977267;28;20462;-70
2022/01/07 14:10:30;;;;;;;4.17;3.83;;;3.80;99.90;;;;;;4976420;28;20518;-68
2022/01/07 14:12:59;;;;;;;5.30;4.33;;;3.80;99.90;;;;;;4976814;28;20482;-71
2022/01/07 14:15:28;;;;;;;4.70;3.87;;;3.80;99.90;;;;;;4976740;28;20463;-71
2022/01/07 14:18:10;;;;;;;7.67;5.40;;;3.80;99.90;;;;;;4977065;28;20466;-71
2022/01/07 14:20:47;;;;;;;4.77;3.67;;;3.80;99.90;;;;;;4977473;28;20479;-71
2022/01/07 14:23:17;;;;;;;4.20;2.90;;;3.80;99.90;;;;;;4978266;28;20443;-69
2022/01/07 14:25:44;;;;;;;4.13;3.60;;;3.80;99.90;;;;;;4976542;28;20464;-69
2022/01/07 14:28:12;;;;;;;3.47;3.17;;;3.80;99.90;;;;;;4977122;28;20460;-68
2022/01/07 14:30:39;;;;;;;4.80;3.53;;;3.80;99.90;;;;;;4977140;28;20989;-69
2022/01/07 14:33:06;;;;;;;4.90;2.53;;;3.80;99.90;;;;;;4976369;28;20621;-69
2022/01/07 14:35:33;;;;;;;3.00;2.50;;;3.80;99.90;;;;;;4976572;28;20466;-70
2022/01/07 14:37:59;;;;;;;4.80;3.50;;;3.80;99.90;;;;;;4976861;28;20466;-70
2022/01/07 14:40:27;;;;;;;5.53;3.27;;;3.80;99.90;;;;;;4975926;28;20463;-71
2022/01/07 14:42:54;;;;;;;4.17;3.10;;;3.90;99.90;;;;;;4976444;28;20462;-72
2022/01/07 14:45:21;;;;;;;3.00;2.80;;;3.90;99.90;;;;;;4976155;28;20969;-71
2022/01/07 14:47:48;;;;;;;5.00;3.20;;;4.00;99.90;;;;;;4976143;28;20482;-72
2022/01/07 14:50:15;;;;;;;4.13;3.30;;;3.90;99.90;;;;;;4976457;28;20522;-72
2022/01/07 14:52:42;;;;;;;4.03;3.60;;;4.00;99.90;;;;;;4977053;28;20447;-72
2022/01/07 14:55:10;;;;;;;5.17;3.10;;;4.00;99.90;;;;;;4976141;28;20478;-73
2022/01/07 14:57:38;;;;;;;3.10;2.90;;;4.00;99.90;;;;;;4979239;28;20455;-72
2022/01/07 15:00:07;;;;;;;2.53;2.33;;;4.10;99.90;;;;;;4979001;28;20538;-72
2022/01/07 15:02:34;;;;;;;3.53;3.20;;;4.10;99.90;;;;;;4975433;28;20482;-71
2022/01/07 15:05:01;;;;;;;2.90;2.70;;;4.10;99.90;;;;;;4976132;28;20824;-72
2022/01/07 15:07:27;;;;;;;2.83;2.63;;;4.10;99.90;;;;;;4975890;28;20461;-72
2022/01/07 15:09:54;;;;;;;2.00;1.90;;;4.00;99.90;;;;;;4975568;28;20504;-72
2022/01/07 15:12:21;;;;;;;5.40;4.07;;;4.00;99.90;;;;;;4975717;28;20529;-72
2022/01/07 15:14:50;;;;;;;7.70;3.60;;;3.90;99.90;;;;;;4975845;28;20463;-73
2022/01/07 15:17:17;;;;;;;5.00;2.97;;;3.90;99.90;;;;;;4975642;28;20439;-70
2022/01/07 15:19:43;;;;;;;2.60;2.40;;;4.00;99.90;;;;;;4975729;28;20456;-69
2022/01/07 15:22:10;;;;;;;5.70;3.07;;;4.00;99.90;;;;;;4975449;28;20479;-69
2022/01/07 15:24:37;;;;;;;3.70;2.50;;;3.90;99.90;;;;;;4975932;28;20463;-69
2022/01/07 15:27:04;;;;;;;3.33;3.07;;;3.90;99.90;;;;;;4975955;28;20455;-69
2022/01/07 15:29:31;;;;;;;7.80;3.50;;;3.90;99.90;;;;;;4975737;28;20463;-69
2022/01/07 15:31:59;;;;;;;3.57;3.23;;;3.90;99.90;;;;;;4975664;28;20991;-69
2022/01/07 15:34:26;;;;;;;3.97;2.93;;;4.00;99.90;;;;;;4976186;28;20470;-69
2022/01/07 15:36:53;;;;;;;6.30;3.60;;;4.00;99.90;;;;;;4975783;28;20938;-69
2022/01/07 15:39:21;;;;;;;3.10;2.77;;;4.00;99.90;;;;;;4977230;28;20462;-69
2022/01/07 15:41:53;;;;;;;2.73;2.43;;;4.00;99.90;;;;;;4976879;28;20979;-69
2022/01/07 15:44:20;;;;;;;3.20;2.90;;;4.00;99.90;;;;;;4976436;28;20451;-69
2022/01/07 15:46:47;;;;;;;5.90;3.20;;;4.00;99.90;;;;;;4976573;28;20557;-68
2022/01/07 15:49:15;;;;;;;4.00;3.00;;;4.00;99.90;;;;;;4977531;28;20521;-69
2022/01/07 15:51:43;;;;;;;4.50;2.90;;;4.00;99.90;;;;;;4975423;28;20511;-69
2022/01/07 15:54:10;;;;;;;2.60;2.40;;;4.10;99.90;;;;;;4975806;28;20954;-71
2022/01/07 15:56:36;;;;;;;3.83;3.30;;;4.10;99.90;;;;;;4977197;28;20467;-70
2022/01/07 15:59:04;;;;;;;2.73;2.40;;;4.10;99.90;;;;;;4979719;28;20458;-71
2022/01/07 16:01:31;;;;;;;4.60;3.03;;;4.20;99.90;;;;;;4979382;28;20490;-71
2022/01/07 16:03:57;;;;;;;3.10;2.90;;;4.20;99.90;;;;;;4980656;28;20459;-71
2022/01/07 16:06:26;;;;;;;4.03;2.23;;;4.20;99.90;;;;;;4980053;28;20439;-71
2022/01/07 16:08:53;;;;;;;3.13;2.70;;;4.20;99.90;;;;;;4977255;28;20462;-70
2022/01/07 16:11:20;;;;;;;6.00;2.60;;;4.10;99.90;;;;;;4976602;28;20475;-70
2022/01/07 16:13:46;;;;;;;5.13;3.27;;;4.20;99.90;;;;;;4976213;28;20451;-70
2022/01/07 16:16:14;;;;;;;3.97;3.07;;;4.20;99.90;;;;;;4975483;28;20926;-70
2022/01/07 16:18:41;;;;;;;3.77;3.47;;;4.20;99.90;;;;;;4975660;28;20506;-70
2022/01/07 16:21:08;;;;;;;2.67;2.47;;;4.10;99.90;;;;;;4975229;28;21010;-71
2022/01/07 16:23:36;;;;;;;3.43;2.43;;;4.10;99.90;;;;;;4976585;28;20462;-71
2022/01/07 16:26:05;;;;;;;6.33;3.37;;;4.10;99.90;;;;;;4976653;28;21051;-71
2022/01/07 16:28:32;;;;;;;2.80;2.20;;;4.10;99.90;;;;;;4976233;28;20463;-70
2022/01/07 16:30:59;;;;;;;3.23;2.53;;;4.10;99.90;;;;;;4975308;28;20526;-71
2022/01/07 16:33:26;;;;;;;5.73;2.60;;;4.10;99.90;;;;;;4975400;28;20454;-70
2022/01/07 16:35:53;;;;;;;2.13;2.03;;;4.10;99.90;;;;;;4978646;28;20459;-70
2022/01/07 16:38:20;;;;;;;3.27;2.80;;;4.10;99.90;;;;;;4979431;28;20455;-70
2022/01/07 16:40:48;;;;;;;3.00;2.80;;;4.10;99.90;;;;;;4978904;28;20485;-71
2022/01/07 16:43:15;;;;;;;4.90;2.90;;;4.10;99.90;;;;;;4978372;28;20984;-70
2022/01/07 16:45:42;;;;;;;3.43;3.13;;;4.10;99.90;;;;;;4978917;28;20455;-71
2022/01/07 16:48:08;;;;;;;3.70;2.90;;;4.10;99.90;;;;;;4979079;28;20458;-70
2022/01/07 16:50:35;;;;;;;4.10;2.97;;;4.00;99.90;;;;;;4979793;28;20455;-70
2022/01/07 16:53:02;;;;;;;5.43;3.17;;;4.00;99.90;;;;;;4979566;28;20455;-71
2022/01/07 16:55:30;;;;;;;2.50;2.20;;;4.00;99.90;;;;;;4978841;28;20950;-70
2022/01/07 16:57:58;;;;;;;2.87;2.53;;;4.00;99.90;;;;;;4979219;28;20463;-70
2022/01/07 17:00:25;;;;;;;2.90;2.70;;;4.00;99.90;;;;;;4978531;28;20466;-70
2022/01/07 17:02:52;;;;;;;2.07;1.97;;;4.00;99.90;;;;;;4979883;28;20467;-70
2022/01/07 17:05:18;;;;;;;2.77;2.67;;;3.90;99.90;;;;;;4980141;28;20444;-70
2022/01/07 17:07:45;;;;;;;3.20;2.80;;;3.90;99.90;;;;;;4978977;28;20475;-71
2022/01/07 17:10:14;;;;;;;2.57;2.37;;;4.00;99.90;;;;;;4977907;28;20439;-71
2022/01/07 17:12:41;;;;;;;3.90;2.70;;;4.00;99.90;;;;;;4978581;28;20474;-71
2022/01/07 17:15:11;;;;;;;3.17;2.97;;;3.90;99.90;;;;;;4978367;28;20462;-71
2022/01/07 17:17:39;;;;;;;3.37;2.60;;;3.90;99.90;;;;;;4977988;28;20506;-71
2022/01/07 17:20:09;;;;;;;2.83;2.60;;;3.90;99.90;;;;;;4978200;28;20462;-71
2022/01/07 17:22:36;;;;;;;5.03;2.97;;;3.90;99.90;;;;;;4977476;28;20498;-70
2022/01/07 17:25:03;;;;;;;2.90;2.60;;;3.90;99.90;;;;;;4977516;28;20451;-70
2022/01/07 17:27:30;;;;;;;3.53;2.93;;;4.00;99.90;;;;;;4977451;28;20455;-70
2022/01/07 17:29:57;;;;;;;2.23;2.10;;;3.90;99.90;;;;;;4987476;28;20455;-71
2022/01/07 17:32:25;;;;;;;3.13;2.40;;;4.00;99.90;;;;;;4992841;28;20471;-70
2022/01/07 17:34:52;;;;;;;3.70;2.50;;;4.00;99.90;;;;;;4977887;28;20454;-70
2022/01/07 17:37:20;;;;;;;2.47;2.27;;;4.00;99.90;;;;;;4977273;28;20440;-70
2022/01/07 17:39:47;;;;;;;6.07;2.47;;;4.00;99.90;;;;;;4976877;28;20463;-70
2022/01/07 17:42:14;;;;;;;4.67;2.90;;;3.90;99.90;;;;;;4976606;28;20479;-70
2022/01/07 17:44:40;;;;;;;4.47;3.13;;;4.00;99.90;;;;;;4977407;28;20459;-70
2022/01/07 17:47:07;;;;;;;2.93;2.63;;;4.00;99.90;;;;;;4976142;28;20455;-70
2022/01/07 17:49:35;;;;;;;4.47;2.13;;;4.00;99.90;;;;;;4976919;28;20459;-70
2022/01/07 17:52:03;;;;;;;2.57;2.33;;;3.90;99.90;;;;;;4977309;28;20471;-70
2022/01/07 17:54:30;;;;;;;2.83;2.40;;;4.00;99.90;;;;;;4977577;28;20459;-69
2022/01/07 17:56:57;;;;;;;3.67;2.73;;;4.00;99.90;;;;;;4982226;28;20484;-69
2022/01/07 17:59:24;;;;;;;2.67;2.40;;;4.00;99.90;;;;;;4984259;28;20466;-69
2022/01/07 18:01:51;;;;;;;3.27;2.47;;;4.00;99.90;;;;;;4985859;28;20491;-69